Archival Weather

South Haven Area Rgnl

South Haven, Michigan (KLWA)

Report from: Wednesday, December 6, 2023 12:55 AM EST
Current time: Saturday, February 24, 2024 10:17 AM EST

Current weather – Weather history – Daily summaries
Weather forecast

Temperature2.0°C (35.6°F)
Dew point0.5°C (32.9°F)
Winds Calm
Visibility10 mi. (16.1 km)
Clouds Ceiling: Overcast 3,900 ft. (1,189 m)
Altimeter30.19 in.Hg (1022 mB)
Relative humidity90 %
Density altitude-1,796 ft. (-547 m)
Max temp last 6 hours3.1°C (37.6°F)
Min temp last 6 hours1.9°C (35.4°F)
Max temp last 24 hours4.5°C (40.1°F)
Min temp last 24 hours0.7°C (33.3°F)
Remarks Fully automated report
Automated weather observing station with precipitation discriminator
Flight conditions Visual Meteorological Conditions
Raw dataKLWA 060555Z AUTO 00000KT 10SM OVC039 02/01 A3019 RMK AO2 T00200005 10031 20019 400450007
An error has occurred. This application may no longer respond until reloaded. Reload 🗙